Time;durP1;ratioP1;P1;durP2;ratioP2;P2;SDS_P1;SDS_P2;PMS_P1;PMS_P2;Temp;Humidity;BMP_temperature;BMP_pressure;BME280_temperature;BME280_humidity;BME280_pressure;Samples;Min_cycle;Max_cycle;Signal;HPM_P1;HPM_P2
2021/11/29 00:00:49;;;;;;;31.98;19.38;;;;;;;4.00;69.81;98843.06;5095081;28;20044;-63
2021/11/29 00:03:17;;;;;;;30.25;19.63;;;;;;;4.01;70.43;98848.28;5095328;28;20055;-63
2021/11/29 00:05:45;;;;;;;32.25;19.98;;;;;;;3.96;70.47;98842.06;5094934;28;20439;-63
2021/11/29 00:08:12;;;;;;;29.42;18.95;;;;;;;4.01;71.11;98848.28;5095167;28;20052;-63
2021/11/29 00:10:40;;;;;;;30.55;19.65;;;;;;;4.02;71.16;98851.84;5095296;28;20051;-62
2021/11/29 00:13:08;;;;;;;30.60;18.95;;;;;;;4.00;71.26;98843.88;5095290;28;20051;-63
2021/11/29 00:15:36;;;;;;;32.08;20.10;;;;;;;3.83;72.30;98850.06;5095007;28;20478;-63
2021/11/29 00:18:04;;;;;;;30.00;19.77;;;;;;;4.01;71.44;98850.19;5095178;28;20052;-63
2021/11/29 00:20:32;;;;;;;28.63;19.42;;;;;;;4.08;71.20;98847.84;5094557;28;20067;-63
2021/11/29 00:22:59;;;;;;;27.95;19.23;;;;;;;4.12;71.21;98850.81;5094815;28;20056;-63
2021/11/29 00:25:30;;;;;;;31.80;19.38;;;;;;;4.13;70.44;98855.97;5095136;28;20412;-63
2021/11/29 00:27:57;;;;;;;;;;;;;;;4.10;70.50;98859.38;5095519;28;20523;-63
2021/11/29 00:30:24;;;;;;;30.55;19.70;;;;;;;4.12;70.04;98867.34;5095148;28;19927;-63
2021/11/29 00:32:53;;;;;;;28.52;19.40;;;;;;;4.04;70.40;98868.88;5094737;28;20436;-63
2021/11/29 00:35:20;;;;;;;32.42;20.40;;;;;;;4.01;70.36;98875.84;5094632;28;20052;-63
2021/11/29 00:37:47;;;;;;;32.33;19.77;;;;;;;3.96;70.14;98873.19;5094875;28;20598;-63
2021/11/29 00:40:15;;;;;;;30.63;19.13;;;;;;;3.91;69.90;98870.56;5094760;28;20052;-63
2021/11/29 00:42:42;;;;;;;32.40;19.77;;;;;;;3.90;69.61;98882.69;5094734;28;20059;-63
2021/11/29 00:45:11;;;;;;;33.78;19.60;;;;;;;3.88;69.44;98876.66;5094354;28;20436;-63
2021/11/29 00:47:39;;;;;;;34.28;19.92;;;;;;;3.71;70.02;98871.81;5094498;28;20056;-63
2021/11/29 00:50:13;;;;;;;33.72;19.95;;;;;;;3.71;70.07;98879.25;5094136;28;20055;-63
2021/11/29 00:52:40;;;;;;;32.85;20.35;;;;;;;3.74;69.86;98873.94;5094473;28;20481;-63
2021/11/29 00:55:08;;;;;;;36.75;20.67;;;;;;;3.67;70.70;98873.53;5094351;28;20044;-63
2021/11/29 00:57:36;;;;;;;29.80;19.13;;;;;;;3.64;71.04;98880.47;5094256;28;20044;-63
2021/11/29 01:00:04;;;;;;;36.47;19.33;;;;;;;3.64;71.40;98891.50;5094040;28;20048;-63
2021/11/29 01:02:32;;;;;;;34.75;19.75;;;;;;;3.70;71.54;98883.94;5094557;28;20059;-63
2021/11/29 01:04:59;;;;;;;36.92;19.63;;;;;;;3.71;71.43;98891.06;5093833;28;20044;-63
2021/11/29 01:07:28;;;;;;;30.65;18.17;;;;;;;3.68;71.44;98886.19;5094145;28;20052;-63
2021/11/29 01:09:55;;;;;;;31.23;18.05;;;;;;;3.53;71.94;98892.84;5094032;28;20051;-63
2021/11/29 01:12:23;;;;;;;33.47;18.20;;;;;;;3.66;70.66;98891.19;5093888;28;20060;-63
2021/11/29 01:14:50;;;;;;;32.28;16.33;;;;;;;3.68;70.29;98905.47;5093897;28;20048;-63
2021/11/29 01:17:17;;;;;;;28.05;15.05;;;;;;;3.67;70.46;98890.06;5094248;28;20059;-63
2021/11/29 01:19:45;;;;;;;27.95;16.92;;;;;;;3.55;70.04;98893.34;5093768;28;20052;-63
2021/11/29 01:22:14;;;;;;;24.45;13.98;;;;;;;3.38;70.92;98909.63;5094143;28;20056;-63
2021/11/29 01:24:43;;;;;;;27.85;14.82;;;;;;;3.23;70.82;98908.00;5093700;28;20417;-63
2021/11/29 01:27:10;;;;;;;25.75;14.48;;;;;;;3.28;70.83;98907.13;5093683;28;20047;-63
2021/11/29 01:29:37;;;;;;;27.80;13.95;;;;;;;3.31;70.69;98907.28;5093673;28;20052;-63
2021/11/29 01:32:06;;;;;;;23.75;13.85;;;;;;;3.31;70.63;98909.25;5093650;28;20052;-63
2021/11/29 01:34:33;;;;;;;25.05;14.07;;;;;;;3.18;70.58;98910.88;5092201;28;20052;-63
2021/11/29 01:37:00;;;;;;;24.77;13.32;;;;;;;3.11;71.06;98914.03;5093478;28;20063;-63
2021/11/29 01:39:27;;;;;;;24.73;13.30;;;;;;;3.17;69.99;98920.22;5093808;28;20481;-63
2021/11/29 01:41:56;;;;;;;21.98;12.32;;;;;;;3.18;70.22;98925.44;5093354;28;20063;-63
2021/11/29 01:44:24;;;;;;;22.63;12.43;;;;;;;3.14;70.18;98924.41;5093505;28;20400;-63
2021/11/29 01:46:51;;;;;;;23.67;13.27;;;;;;;3.13;69.71;98927.44;5093288;28;20059;-63
2021/11/29 01:49:19;;;;;;;28.95;14.15;;;;;;;3.08;69.81;98925.63;5092394;28;20496;-63
2021/11/29 01:51:46;;;;;;;26.83;13.25;;;;;;;3.09;69.71;98934.66;5093240;28;20048;-63
2021/11/29 01:54:13;;;;;;;25.20;12.98;;;;;;;3.01;69.83;98933.47;5093687;28;20047;-63
2021/11/29 01:56:42;;;;;;;24.95;13.27;;;;;;;2.89;70.56;98941.38;5093116;28;20066;-63
2021/11/29 01:59:10;;;;;;;26.00;13.43;;;;;;;2.90;70.71;98945.72;5093363;28;20339;-63
2021/11/29 02:01:39;;;;;;;24.23;13.23;;;;;;;2.92;70.23;98938.84;5092968;28;20081;-63
2021/11/29 02:04:11;;;;;;;25.00;12.43;;;;;;;2.91;70.60;98942.69;5073121;28;20063;-63
2021/11/29 02:06:40;;;;;;;27.10;13.38;;;;;;;2.91;71.08;98939.13;5073333;28;20056;-63
2021/11/29 02:09:09;;;;;;;25.20;13.40;;;;;;;2.95;70.79;98942.91;5072612;28;20067;-63
2021/11/29 02:11:37;;;;;;;24.30;12.95;;;;;;;2.98;70.90;98953.28;5085245;28;20405;-63
2021/11/29 02:14:05;;;;;;;23.67;13.05;;;;;;;3.00;70.88;98942.81;5092366;28;20048;-63
2021/11/29 02:16:34;;;;;;;21.80;12.13;;;;;;;2.91;70.91;98945.44;5085975;28;20049;-63
2021/11/29 02:19:04;;;;;;;27.90;12.23;;;;;;;3.03;71.07;98942.22;5080967;28;20048;-63
2021/11/29 02:21:33;;;;;;;18.83;11.10;;;;;;;3.01;70.58;98941.72;5083590;28;20056;-63
2021/11/29 02:24:03;;;;;;;18.27;10.88;;;;;;;2.88;70.61;98951.56;5072629;28;20060;-63
2021/11/29 02:26:32;;;;;;;;;;;;;;;3.00;70.10;98943.66;5089312;28;20052;-63
2021/11/29 02:29:02;;;;;;;16.70;8.57;;;;;;;2.92;70.11;98949.00;5092478;28;19994;-63
2021/11/29 02:31:33;;;;;;;19.17;9.60;;;;;;;2.99;69.73;98944.75;5092125;28;20417;-63
2021/11/29 02:34:06;;;;;;;18.83;9.80;;;;;;;2.96;69.30;98950.03;5092139;28;20059;-63
2021/11/29 02:36:36;;;;;;;21.83;9.27;;;;;;;2.94;69.72;98955.00;5091026;28;20409;-63
2021/11/29 02:39:05;;;;;;;18.27;9.75;;;;;;;3.06;69.87;98966.38;5084133;28;20071;-63
2021/11/29 02:41:33;;;;;;;15.30;9.25;;;;;;;2.90;69.74;98960.31;5073898;28;20047;-63
2021/11/29 02:44:00;;;;;;;16.58;8.52;;;;;;;3.06;69.98;98969.09;5072131;28;20071;-63
2021/11/29 02:46:29;;;;;;;19.15;9.23;;;;;;;3.02;69.72;98968.06;5071790;28;20055;-63
2021/11/29 02:48:58;;;;;;;17.42;9.00;;;;;;;2.99;69.73;98971.44;5087822;28;20508;-63
2021/11/29 02:51:29;;;;;;;19.25;7.80;;;;;;;3.09;68.68;98960.28;5073172;28;20500;-63
2021/11/29 02:54:03;;;;;;;13.75;7.50;;;;;;;3.09;69.85;98963.03;5072049;28;20512;-63
2021/11/29 02:56:31;;;;;;;14.77;7.97;;;;;;;3.20;69.05;98964.47;5073050;28;20490;-63
2021/11/29 02:58:58;;;;;;;14.52;7.57;;;;;;;3.20;68.70;98966.41;5092028;28;20048;-63
2021/11/29 03:01:26;;;;;;;13.77;7.50;;;;;;;3.07;69.04;98968.00;5092216;28;20063;-63
2021/11/29 03:03:55;;;;;;;16.10;7.43;;;;;;;3.19;69.14;98967.50;5092030;28;20047;-63
2021/11/29 03:06:23;;;;;;;14.52;7.63;;;;;;;3.33;68.62;98967.53;5092296;28;20052;-63
2021/11/29 03:08:51;;;;;;;14.65;7.97;;;;;;;3.21;68.78;98968.84;5071956;28;20053;-63
2021/11/29 03:11:20;;;;;;;14.43;7.40;;;;;;;3.40;68.30;98962.44;5081971;28;20488;-63
2021/11/29 03:13:48;;;;;;;12.43;5.70;;;;;;;3.38;68.57;98962.78;5091821;28;20369;-63
2021/11/29 03:16:16;;;;;;;11.50;6.20;;;;;;;3.44;67.72;98960.72;5091709;28;20162;-63
2021/11/29 03:18:44;;;;;;;15.73;6.60;;;;;;;3.34;68.14;98970.00;5091731;28;20052;-63
2021/11/29 03:21:14;;;;;;;12.85;6.80;;;;;;;3.32;68.44;98968.66;5073544;28;20493;-63
2021/11/29 03:23:43;;;;;;;10.60;5.90;;;;;;;3.33;68.62;98973.06;5072324;28;20465;-63
2021/11/29 03:26:15;;;;;;;11.43;6.55;;;;;;;3.28;68.22;98975.91;5072060;28;20049;-63
2021/11/29 03:28:48;;;;;;;8.43;4.70;;;;;;;3.24;68.66;98967.44;5071489;28;20056;-63
2021/11/29 03:31:16;;;;;;;14.93;6.43;;;;;;;3.18;69.02;98972.19;5072157;28;20052;-63
2021/11/29 03:33:44;;;;;;;14.98;6.15;;;;;;;3.37;68.89;98965.81;5090941;28;21360;-63
2021/11/29 03:36:12;;;;;;;12.73;6.50;;;;;;;3.46;68.11;98972.25;5091899;28;20060;-63
2021/11/29 03:38:40;;;;;;;13.32;6.78;;;;;;;3.47;68.07;98973.88;5091675;28;20052;-63
2021/11/29 03:41:08;;;;;;;12.23;5.88;;;;;;;3.34;68.13;98970.00;5092253;28;20052;-62
2021/11/29 03:43:38;;;;;;;10.57;5.85;;;;;;;3.48;67.74;98978.25;5092093;28;20059;-63
2021/11/29 03:46:08;;;;;;;13.95;5.93;;;;;;;3.62;67.33;98970.03;5091963;28;20055;-63
2021/11/29 03:48:36;;;;;;;13.52;6.50;;;;;;;3.53;67.17;98980.94;5091381;28;20489;-63
2021/11/29 03:51:06;;;;;;;11.77;5.85;;;;;;;3.48;67.97;98975.50;5091699;28;20056;-63
2021/11/29 03:53:34;;;;;;;10.70;5.45;;;;;;;3.54;67.76;98984.50;5091673;28;20055;-63
2021/11/29 03:56:01;;;;;;;8.32;5.13;;;;;;;3.71;67.26;98984.69;5091548;28;20059;-63
2021/11/29 03:58:29;;;;;;;11.68;5.40;;;;;;;3.59;66.79;98984.38;5095424;28;20503;-63
2021/11/29 04:00:56;;;;;;;11.68;4.93;;;;;;;3.71;67.01;99000.41;5095510;28;20051;-62
2021/11/29 04:03:25;;;;;;;10.32;4.90;;;;;;;3.79;66.61;99000.50;5095386;28;20055;-63
2021/11/29 04:05:52;;;;;;;9.38;4.88;;;;;;;3.72;67.00;98997.34;5095676;28;20066;-63
2021/11/29 04:08:19;;;;;;;10.02;5.00;;;;;;;3.75;67.25;99002.25;5095576;28;20516;-62
2021/11/29 04:10:47;;;;;;;7.72;4.45;;;;;;;3.55;67.74;99011.72;5094841;28;20052;-63
2021/11/29 04:13:14;;;;;;;8.57;5.00;;;;;;;3.74;66.90;99011.63;5095685;28;20126;-63
2021/11/29 04:15:42;;;;;;;9.75;5.60;;;;;;;3.76;66.70;99011.31;5095009;28;20052;-63
2021/11/29 04:18:09;;;;;;;10.23;4.88;;;;;;;3.81;66.82;99002.97;5094962;28;20048;-63
2021/11/29 04:20:38;;;;;;;9.52;5.38;;;;;;;3.62;67.45;99014.88;5095700;28;20488;-62
2021/11/29 04:23:06;;;;;;;10.03;4.70;;;;;;;3.71;66.77;99014.19;5094958;28;20055;-63
2021/11/29 04:25:39;;;;;;;13.32;5.63;;;;;;;3.49;67.59;99015.69;5095117;28;20057;-63
2021/11/29 04:28:07;;;;;;;9.52;5.00;;;;;;;3.75;67.04;99010.50;5095068;28;20052;-62
2021/11/29 04:30:35;;;;;;;9.88;5.13;;;;;;;3.71;66.93;99019.69;5094861;28;20404;-63
2021/11/29 04:33:02;;;;;;;10.68;4.82;;;;;;;3.80;66.83;99020.59;5094922;28;20078;-63
2021/11/29 04:35:30;;;;;;;10.38;4.70;;;;;;;3.73;66.76;99020.19;5095433;28;20055;-63
2021/11/29 04:37:59;;;;;;;12.38;4.93;;;;;;;3.68;66.93;99023.06;5094871;28;20415;-63
2021/11/29 04:40:26;;;;;;;13.80;6.30;;;;;;;3.64;67.06;99022.84;5095124;28;20056;-63
2021/11/29 04:42:53;;;;;;;9.25;5.05;;;;;;;3.64;67.29;99025.59;5094699;28;20059;-63
2021/11/29 04:45:21;;;;;;;9.95;4.63;;;;;;;3.43;67.85;99019.66;5095279;28;20058;-63
2021/11/29 04:47:48;;;;;;;10.60;4.35;;;;;;;3.52;67.28;99026.09;5094484;28;20048;-63
2021/11/29 04:50:16;;;;;;;9.45;4.47;;;;;;;3.55;67.11;99030.16;5094198;28;20497;-63
2021/11/29 04:52:44;;;;;;;9.95;4.82;;;;;;;3.45;67.53;99033.94;5094451;28;20056;-63
2021/11/29 04:55:13;;;;;;;11.10;4.55;;;;;;;3.51;67.41;99023.63;5094324;28;20059;-63
2021/11/29 04:57:42;;;;;;;9.60;5.15;;;;;;;3.49;67.95;99026.69;5094751;28;20102;-63
2021/11/29 05:00:11;;;;;;;7.13;4.40;;;;;;;3.48;67.53;99024.25;5094570;28;20378;-63
2021/11/29 05:02:39;;;;;;;8.18;3.90;;;;;;;3.50;67.56;99033.81;5093968;28;20420;-63
2021/11/29 05:05:08;;;;;;;9.18;4.45;;;;;;;3.42;67.84;99026.25;5094104;28;20056;-63
2021/11/29 05:07:36;;;;;;;8.60;4.47;;;;;;;3.42;67.94;99032.59;5094630;28;20059;-63
2021/11/29 05:10:04;;;;;;;7.47;4.15;;;;;;;3.40;67.96;99026.59;5094873;28;20051;-63
2021/11/29 05:12:33;;;;;;;7.53;3.88;;;;;;;3.36;68.12;99030.22;5093425;28;20052;-63
2021/11/29 05:15:00;;;;;;;6.63;3.85;;;;;;;3.33;68.73;99036.34;5094182;28;20052;-63
2021/11/29 05:17:27;;;;;;;8.38;4.28;;;;;;;3.42;68.28;99037.28;5093793;28;20146;-63
2021/11/29 05:19:55;;;;;;;11.23;5.05;;;;;;;3.48;68.93;99038.81;5093822;28;20052;-63
2021/11/29 05:22:22;;;;;;;9.73;4.65;;;;;;;3.48;69.02;99044.31;5094285;28;20052;-63
2021/11/29 05:24:50;;;;;;;8.13;3.80;;;;;;;3.43;68.95;99049.94;5094330;28;20052;-63
2021/11/29 05:27:17;;;;;;;7.88;4.43;;;;;;;3.54;68.37;99053.31;5093320;28;20118;-62
2021/11/29 05:29:46;;;;;;;9.43;3.55;;;;;;;3.59;68.69;99051.28;5093880;28;20056;-63
2021/11/29 05:32:14;;;;;;;6.13;4.07;;;;;;;3.42;68.76;99049.13;5093816;28;20052;-63
2021/11/29 05:34:41;;;;;;;7.53;3.30;;;;;;;3.60;68.71;99052.09;5093958;28;20052;-63
2021/11/29 05:37:08;;;;;;;8.75;4.03;;;;;;;3.68;67.99;99053.34;5093363;28;20055;-63
2021/11/29 05:39:36;;;;;;;6.07;3.20;;;;;;;3.70;68.37;99059.38;5093370;28;20060;-63
2021/11/29 05:42:04;;;;;;;7.40;3.33;;;;;;;3.83;67.55;99066.81;5093554;28;20532;-63
2021/11/29 05:44:31;;;;;;;7.05;3.35;;;;;;;3.75;68.24;99059.25;5093296;28;20056;-63
2021/11/29 05:47:02;;;;;;;7.43;4.75;;;;;;;3.89;67.73;99067.56;5093445;28;20048;-63
2021/11/29 05:49:29;;;;;;;7.75;3.65;;;;;;;3.95;67.68;99071.81;5092976;28;20051;-63
2021/11/29 05:51:58;;;;;;;7.43;3.88;;;;;;;3.94;67.71;99076.50;5092855;28;20062;-62
2021/11/29 05:54:25;;;;;;;7.88;3.58;;;;;;;4.06;67.38;99082.34;5093386;28;20408;-63
2021/11/29 05:56:56;;;;;;;7.32;3.40;;;;;;;3.98;67.60;99088.56;5092638;28;20052;-63
2021/11/29 05:59:23;;;;;;;7.75;3.45;;;;;;;4.05;67.42;99083.47;5093102;28;20055;-62
2021/11/29 06:01:51;;;;;;;5.15;3.33;;;;;;;3.79;67.76;99090.59;5092948;28;20414;-63
2021/11/29 06:04:20;;;;;;;6.10;3.80;;;;;;;4.07;66.95;99094.19;5092999;28;20052;-63
2021/11/29 06:06:48;;;;;;;7.07;3.55;;;;;;;4.07;66.92;99096.94;5093373;28;20595;-63
2021/11/29 06:09:18;;;;;;;12.05;4.32;;;;;;;4.01;67.07;99093.47;5093180;28;20055;-63
2021/11/29 06:11:45;;;;;;;10.75;3.83;;;;;;;4.13;66.70;99100.41;5091954;28;20071;-62
2021/11/29 06:14:13;;;;;;;11.07;4.28;;;;;;;3.99;67.22;99104.00;5093180;28;20055;-63
2021/11/29 06:16:40;;;;;;;6.10;4.28;;;;;;;4.04;66.96;99111.34;5092682;28;20412;-62
2021/11/29 06:19:07;;;;;;;8.27;4.13;;;;;;;3.95;67.03;99107.63;5092620;28;20056;-63
2021/11/29 06:21:36;;;;;;;8.10;3.72;;;;;;;4.03;67.14;99104.16;5092571;28;20056;-63
2021/11/29 06:24:05;;;;;;;8.38;4.60;;;;;;;4.06;66.98;99101.63;5092743;28;20044;-63
2021/11/29 06:26:32;;;;;;;8.10;4.18;;;;;;;4.08;66.63;99104.09;5091589;28;20062;-63
2021/11/29 06:29:00;;;;;;;10.15;4.90;;;;;;;3.97;67.40;99097.97;5092622;28;20052;-63
2021/11/29 06:31:27;;;;;;;9.43;4.35;;;;;;;4.13;66.83;99092.16;5092337;28;20182;-63
2021/11/29 06:33:54;;;;;;;8.15;4.38;;;;;;;4.15;66.97;99098.16;5092469;28;20091;-63
2021/11/29 06:36:22;;;;;;;8.43;3.95;;;;;;;4.19;66.86;99088.16;5092658;28;20058;-63
2021/11/29 06:38:51;;;;;;;7.20;4.15;;;;;;;4.06;67.13;99104.38;5092240;28;20059;-63
2021/11/29 06:41:20;;;;;;;8.40;4.25;;;;;;;4.18;67.15;99100.31;5092644;28;20054;-63
2021/11/29 06:43:47;;;;;;;6.65;4.70;;;;;;;4.25;66.66;99109.00;5092342;28;20043;-63
2021/11/29 06:46:14;;;;;;;7.18;4.95;;;;;;;4.18;67.13;99100.31;5092294;28;20068;-63
2021/11/29 06:48:42;;;;;;;8.15;4.95;;;;;;;4.23;67.19;99102.97;5092133;28;20044;-63
2021/11/29 06:51:10;;;;;;;12.35;5.50;;;;;;;4.19;66.96;99107.47;5092495;28;20052;-63
2021/11/29 06:53:37;;;;;;;8.38;4.70;;;;;;;4.37;67.02;99112.06;5091915;28;20059;-63
2021/11/29 06:56:06;;;;;;;7.97;4.40;;;;;;;4.38;66.84;99118.38;5091893;28;20055;-63
2021/11/29 06:58:35;;;;;;;7.32;4.72;;;;;;;4.40;66.85;99133.50;5091815;28;20378;-63
2021/11/29 07:01:04;;;;;;;9.15;5.07;;;;;;;4.42;66.77;99131.25;5089488;28;20040;-63
2021/11/29 07:03:32;;;;;;;10.90;5.28;;;;;;;4.22;67.25;99139.91;5090508;28;20044;-62
2021/11/29 07:06:00;;;;;;;9.52;5.60;;;;;;;4.37;67.12;99134.13;5091671;28;20055;-63
2021/11/29 07:08:28;;;;;;;10.77;6.72;;;;;;;4.39;67.37;99136.53;5092052;28;20059;-63
2021/11/29 07:10:57;;;;;;;10.68;6.38;;;;;;;4.27;67.94;99137.88;5092001;28;20047;-63
2021/11/29 07:13:26;;;;;;;8.90;6.23;;;;;;;4.41;67.78;99132.38;5091732;28;20051;-63
2021/11/29 07:15:55;;;;;;;8.40;6.45;;;;;;;4.22;68.63;99145.41;5091589;28;20056;-63
2021/11/29 07:18:22;;;;;;;12.10;7.63;;;;;;;4.11;69.40;99153.06;5091721;28;20059;-63
2021/11/29 07:20:50;;;;;;;11.43;7.97;;;;;;;4.09;69.40;99155.31;5091099;28;20063;-63
2021/11/29 07:23:18;;;;;;;11.63;7.80;;;;;;;4.12;69.70;99160.22;5082578;28;20044;-63
2021/11/29 07:25:45;;;;;;;13.93;7.93;;;;;;;4.12;69.51;99153.91;5071687;28;20049;-64
2021/11/29 07:28:13;;;;;;;12.13;8.65;;;;;;;4.19;69.70;99159.81;5086374;28;20052;-63
2021/11/29 07:30:42;;;;;;;12.35;8.20;;;;;;;3.99;70.77;99161.84;5090272;28;20052;-63
2021/11/29 07:33:09;;;;;;;13.32;6.95;;;;;;;3.82;70.61;99159.66;5093081;28;20048;-63
2021/11/29 07:35:37;;;;;;;13.57;9.38;;;;;;;3.74;71.01;99159.50;5094143;28;20416;-63
2021/11/29 07:38:04;;;;;;;15.57;10.02;;;;;;;3.71;71.59;99160.94;5088647;28;20052;-62
2021/11/29 07:40:32;;;;;;;15.25;10.23;;;;;;;3.62;71.83;99160.81;5079391;28;20463;-62
2021/11/29 07:43:02;;;;;;;14.30;11.30;;;;;;;3.39;72.69;99164.50;5096005;28;20055;-62
2021/11/29 07:45:30;;;;;;;18.08;11.95;;;;;;;3.35;73.27;99172.53;5095676;28;20059;-63
2021/11/29 07:47:59;;;;;;;16.88;11.77;;;;;;;3.50;72.77;99178.91;5095958;28;20094;-62
2021/11/29 07:50:27;;;;;;;17.58;12.10;;;;;;;3.57;72.52;99177.41;5090858;28;20059;-63
2021/11/29 07:52:54;;;;;;;16.65;11.63;;;;;;;3.49;73.31;99180.84;5089587;28;20484;-63
2021/11/29 07:55:25;;;;;;;17.15;12.13;;;;;;;3.38;73.56;99195.88;5089704;28;20056;-63
2021/11/29 07:57:53;;;;;;;20.00;12.77;;;;;;;3.57;72.36;99188.44;5075994;28;20049;-63
2021/11/29 08:00:23;;;;;;;17.58;12.38;;;;;;;3.55;72.93;99196.19;5076882;28;20052;-63
2021/11/29 08:02:55;;;;;;;19.80;13.40;;;;;;;3.50;73.37;99203.69;5081475;28;20048;-63
2021/11/29 08:05:27;;;;;;;20.73;13.75;;;;;;;3.54;74.14;99204.72;5093130;28;20047;-63
2021/11/29 08:07:56;;;;;;;19.17;14.07;;;;;;;3.54;73.35;99213.78;5086653;28;20066;-63
2021/11/29 08:10:25;;;;;;;21.85;14.98;;;;;;;3.60;72.81;99215.34;5094964;28;20412;-62
2021/11/29 08:12:53;;;;;;;18.77;14.88;;;;;;;3.47;74.22;99204.28;5091537;28;20059;-63
2021/11/29 08:15:21;;;;;;;21.30;14.45;;;;;;;3.61;73.41;99213.41;5088812;28;20417;-60
2021/11/29 08:17:49;;;;;;;24.52;17.08;;;;;;;3.68;73.33;99215.81;5088676;28;20055;-60
2021/11/29 08:20:19;;;;;;;27.55;17.58;;;;;;;3.74;73.04;99214.59;5082696;28;20053;-60
2021/11/29 08:22:48;;;;;;;;;;;;;;;3.56;73.37;99225.34;5075552;28;20052;-60
2021/11/29 08:25:16;;;;;;;21.88;16.15;;;;;;;3.69;73.30;99231.19;5083813;28;19935;-61
2021/11/29 08:27:43;;;;;;;22.17;16.30;;;;;;;3.83;73.02;99224.63;5088692;28;20044;-61
2021/11/29 08:30:14;;;;;;;25.20;17.98;;;;;;;3.81;73.16;99228.81;5080568;28;20071;-61
2021/11/29 08:32:42;;;;;;;25.98;18.05;;;;;;;4.04;72.77;99233.38;5082405;28;20063;-60
2021/11/29 08:35:11;;;;;;;22.13;17.20;;;;;;;4.19;72.34;99234.22;5082011;28;20058;-61
2021/11/29 08:37:39;;;;;;;22.95;17.63;;;;;;;4.31;72.18;99240.09;5082721;28;20134;-61
2021/11/29 08:40:09;;;;;;;27.55;18.83;;;;;;;4.34;72.22;99242.22;5081645;28;20056;-61
2021/11/29 08:42:37;;;;;;;24.05;17.42;;;;;;;4.37;71.92;99246.34;5082043;28;20048;-60
2021/11/29 08:45:05;;;;;;;24.10;18.10;;;;;;;4.30;71.77;99246.69;5088530;28;20067;-60
2021/11/29 08:47:32;;;;;;;27.35;18.90;;;;;;;4.51;71.48;99243.56;5083845;28;20059;-60
2021/11/29 08:49:59;;;;;;;24.20;17.77;;;;;;;4.55;71.26;99244.59;5088245;28;20055;-60
2021/11/29 08:52:33;;;;;;;23.83;18.15;;;;;;;4.33;71.68;99251.63;5093064;28;20491;-60
2021/11/29 08:55:01;;;;;;;24.15;19.05;;;;;;;4.38;71.37;99248.75;5083770;28;20056;-60
2021/11/29 08:57:32;;;;;;;24.75;18.75;;;;;;;4.60;70.89;99250.84;5093171;28;20489;-61
2021/11/29 09:00:00;;;;;;;23.35;18.00;;;;;;;4.26;71.56;99253.94;5084198;28;20048;-60
2021/11/29 09:02:27;;;;;;;25.58;18.92;;;;;;;4.41;71.47;99261.97;5092286;28;20055;-59
2021/11/29 09:04:56;;;;;;;26.52;19.17;;;;;;;4.55;71.41;99259.19;5080315;28;20052;-60
2021/11/29 09:07:23;;;;;;;26.65;19.33;;;;;;;4.67;70.52;99258.72;5074481;28;20135;-60
2021/11/29 09:09:50;;;;;;;24.88;19.65;;;;;;;4.72;70.81;99266.06;5081612;28;20051;-60
2021/11/29 09:12:18;;;;;;;27.50;20.30;;;;;;;4.67;71.11;99269.75;5092255;28;20484;-60
2021/11/29 09:14:47;;;;;;;24.27;19.65;;;;;;;4.57;71.10;99270.75;5092338;28;20056;-60
2021/11/29 09:17:14;;;;;;;24.77;19.70;;;;;;;4.70;70.76;99268.31;5092619;28;20044;-60
2021/11/29 09:19:41;;;;;;;26.05;19.10;;;;;;;4.71;70.61;99272.72;5081188;28;20039;-60
2021/11/29 09:22:09;;;;;;;23.13;19.73;;;;;;;4.80;70.57;99270.88;5092063;28;20048;-60
2021/11/29 09:24:36;;;;;;;24.17;18.35;;;;;;;4.90;70.48;99270.69;5087845;28;20444;-60
2021/11/29 09:27:04;;;;;;;19.73;16.17;;;;;;;4.87;69.82;99280.41;5079028;28;20044;-60
2021/11/29 09:29:31;;;;;;;19.95;17.45;;;;;;;4.83;70.22;99284.91;5092185;28;20040;-58
2021/11/29 09:32:03;;;;;;;21.85;16.45;;;;;;;4.77;70.39;99288.88;5091505;28;20215;-60
2021/11/29 09:34:31;;;;;;;17.38;15.38;;;;;;;4.50;70.78;99294.34;5092069;28;20075;-59
2021/11/29 09:36:58;;;;;;;18.92;15.88;;;;;;;4.48;70.90;99298.22;5091494;28;20044;-60
2021/11/29 09:39:26;;;;;;;22.15;17.77;;;;;;;4.29;71.37;99310.41;5090222;28;20048;-60
2021/11/29 09:41:53;;;;;;;21.88;18.13;;;;;;;4.36;71.55;99302.56;5088714;28;20394;-60
2021/11/29 09:44:20;;;;;;;18.38;15.90;;;;;;;4.23;71.84;99304.16;5084307;28;20053;-59
2021/11/29 09:46:47;;;;;;;21.95;17.02;;;;;;;4.45;71.16;99304.34;5071920;28;20409;-60
2021/11/29 09:49:16;;;;;;;19.48;16.92;;;;;;;4.22;72.04;99314.38;5073056;28;20502;-60
2021/11/29 09:51:44;;;;;;;21.98;17.50;;;;;;;4.28;72.19;99312.34;5091563;28;20056;-60
2021/11/29 09:54:11;;;;;;;21.15;17.15;;;;;;;4.33;72.13;99316.97;5077422;28;20056;-60
2021/11/29 09:56:40;;;;;;;23.13;17.33;;;;;;;4.27;71.97;99322.56;5077430;28;20056;-60
2021/11/29 09:59:08;;;;;;;22.00;18.33;;;;;;;4.45;71.64;99323.66;5080920;28;20059;-59
2021/11/29 10:01:35;;;;;;;24.85;18.30;;;;;;;4.63;71.32;99330.22;5082669;28;20383;-60
2021/11/29 10:04:04;;;;;;;23.08;17.73;;;;;;;4.66;71.39;99326.03;5090174;28;20062;-60
2021/11/29 10:06:33;;;;;;;23.67;18.83;;;;;;;4.52;71.52;99330.72;5086768;28;20420;-60
2021/11/29 10:09:00;;;;;;;22.88;18.55;;;;;;;4.67;71.69;99335.94;5084530;28;20048;-60
2021/11/29 10:11:28;;;;;;;25.60;19.10;;;;;;;4.72;71.42;99333.09;5082118;28;20055;-60
2021/11/29 10:13:58;;;;;;;20.55;15.98;;;;;;;4.69;70.93;99336.47;5087002;28;20052;-60
2021/11/29 10:16:31;;;;;;;21.70;17.58;;;;;;;4.84;70.70;99344.44;5073903;28;20048;-60
2021/11/29 10:18:58;;;;;;;19.77;16.95;;;;;;;4.82;70.61;99343.13;5085171;28;20040;-60
2021/11/29 10:21:26;;;;;;;21.52;17.08;;;;;;;4.85;70.55;99343.34;5088268;28;20048;-60
2021/11/29 10:23:59;;;;;;;20.80;17.33;;;;;;;4.81;70.28;99350.59;5083522;28;20060;-60
2021/11/29 10:26:28;;;;;;;25.08;17.70;;;;;;;4.79;70.83;99350.06;5084982;28;20055;-60
2021/11/29 10:28:58;;;;;;;27.40;18.65;;;;;;;4.94;70.58;99342.63;5078404;28;20063;-61
2021/11/29 10:31:29;;;;;;;19.13;16.58;;;;;;;4.69;71.26;99341.97;5084292;28;20052;-60
2021/11/29 10:34:01;;;;;;;21.27;16.45;;;;;;;4.78;70.95;99345.66;5081470;28;20056;-60
2021/11/29 10:36:30;;;;;;;24.85;18.30;;;;;;;4.86;70.65;99358.75;5089310;28;20048;-60
2021/11/29 10:39:04;;;;;;;26.50;18.45;;;;;;;4.95;70.44;99352.53;5087776;28;20481;-61
2021/11/29 10:41:33;;;;;;;24.35;18.58;;;;;;;4.99;71.17;99353.56;5091025;28;20520;-58
2021/11/29 10:44:03;;;;;;;26.27;19.50;;;;;;;4.80;70.78;99354.44;5086741;28;20138;-60
2021/11/29 10:46:33;;;;;;;23.15;18.58;;;;;;;4.88;70.76;99352.94;5087317;28;20045;-58
2021/11/29 10:49:04;;;;;;;25.55;19.88;;;;;;;5.06;70.65;99348.44;5072002;28;20052;-61
2021/11/29 10:51:31;;;;;;;24.17;18.60;;;;;;;5.09;70.73;99347.84;5085637;28;20056;-61
2021/11/29 10:54:02;;;;;;;23.90;18.55;;;;;;;5.18;70.30;99345.19;5090478;28;20055;-60
2021/11/29 10:56:31;;;;;;;25.55;18.40;;;;;;;5.29;70.02;99363.19;5087412;28;20051;-61
2021/11/29 10:59:04;;;;;;;24.08;18.35;;;;;;;5.37;69.45;99354.19;5085781;28;20512;-61
2021/11/29 11:01:42;;;;;;;24.23;18.83;;;;;;;5.32;69.90;99350.75;5076299;28;20252;-61
2021/11/29 11:04:12;;;;;;;28.58;20.45;;;;;;;5.38;70.11;99363.31;5077628;28;20056;-61
2021/11/29 11:06:42;;;;;;;27.85;20.63;;;;;;;5.50;69.57;99366.34;5088655;28;20051;-60
2021/11/29 11:09:17;;;;;;;25.88;19.73;;;;;;;5.45;69.84;99366.47;5083019;28;20060;-61
2021/11/29 11:11:48;;;;;;;24.85;19.38;;;;;;;5.38;69.97;99366.88;5079182;28;20044;-60
2021/11/29 11:14:19;;;;;;;26.30;20.48;;;;;;;5.46;69.91;99371.69;5090140;28;20048;-61
2021/11/29 11:16:53;;;;;;;24.40;18.67;;;;;;;5.58;69.83;99373.91;5083218;28;20649;-60
2021/11/29 11:19:24;;;;;;;25.52;19.55;;;;;;;5.45;69.68;99380.28;5083475;28;20060;-60
2021/11/29 11:21:52;;;;;;;25.33;19.17;;;;;;;5.26;69.98;99385.91;5083968;28;20048;-60
2021/11/29 11:24:27;;;;;;;25.63;20.23;;;;;;;5.23;69.79;99386.53;5090001;28;20047;-60
2021/11/29 11:26:58;;;;;;;24.17;18.85;;;;;;;5.36;70.26;99391.22;5078606;28;20067;-60
2021/11/29 11:29:41;;;;;;;24.38;19.33;;;;;;;5.35;69.50;99392.34;5072773;28;20060;-60
2021/11/29 11:32:21;;;;;;;24.90;19.38;;;;;;;5.40;69.96;99395.00;5082389;28;20055;-61
2021/11/29 11:34:52;;;;;;;22.63;18.80;;;;;;;5.51;69.60;99395.63;5087394;28;20055;-60
2021/11/29 11:37:21;;;;;;;24.33;19.42;;;;;;;5.29;70.63;99408.19;5085570;28;20044;-60